Time;durP1;ratioP1;P1;durP2;ratioP2;P2;SDS_P1;SDS_P2;PMS_P1;PMS_P2;Temp;Humidity;BMP_temperature;BMP_pressure;BME280_temperature;BME280_humidity;BME280_pressure;Samples;Min_cycle;Max_cycle;Signal;HPM_P1;HPM_P2
2022/10/04 00:02:52;;;;;;;19.60;7.43;;;10.00;99.90;;;;;;9862923;30;20171;-81
2022/10/04 00:07:58;;;;;;;20.40;8.15;;;10.00;99.90;;;;;;9863562;30;20066;-82
2022/10/04 00:13:06;;;;;;;20.70;8.18;;;10.00;99.90;;;;;;9847471;30;20044;-80
2022/10/04 00:18:22;;;;;;;21.85;8.38;;;10.00;99.90;;;;;;9863457;30;20031;-80
2022/10/04 00:23:22;;;;;;;19.90;7.65;;;10.10;99.90;;;;;;9844181;30;20052;-80
2022/10/04 00:28:36;;;;;;;19.58;6.88;;;10.10;99.90;;;;;;9846363;30;20047;-82
2022/10/04 00:33:40;;;;;;;19.10;6.88;;;10.10;99.90;;;;;;9861684;30;20035;-80
2022/10/04 00:38:41;;;;;;;19.83;7.00;;;10.10;99.90;;;;;;9850081;30;20454;-81
2022/10/04 00:43:46;;;;;;;17.33;7.18;;;10.10;99.90;;;;;;9857503;30;20039;-82
2022/10/04 00:49:04;;;;;;;20.80;7.95;;;10.00;99.90;;;;;;9861005;30;20727;-81
2022/10/04 00:54:21;;;;;;;18.23;7.90;;;10.00;99.90;;;;;;9861752;30;20043;-83
2022/10/04 00:59:58;;;;;;;18.17;7.03;;;10.00;99.90;;;;;;9861162;30;20568;-80
2022/10/04 01:05:03;;;;;;;19.10;7.63;;;10.00;99.90;;;;;;9782582;30;20768;-81
2022/10/04 01:10:10;;;;;;;20.87;7.80;;;9.90;99.90;;;;;;9843987;30;20032;-81
2022/10/04 01:15:41;;;;;;;19.98;7.40;;;9.90;99.90;;;;;;9848617;30;20493;-82
2022/10/04 01:21:03;;;;;;;18.90;7.87;;;9.80;99.90;;;;;;9844845;30;20366;-81
2022/10/04 01:26:06;;;;;;;19.65;8.95;;;9.90;99.90;;;;;;9853333;30;20036;-81
2022/10/04 01:31:06;;;;;;;33.73;10.17;;;9.80;99.90;;;;;;9860826;30;20114;-83
2022/10/04 01:36:07;;;;;;;21.73;8.43;;;9.80;99.90;;;;;;9845440;30;20038;-84
2022/10/04 01:41:10;;;;;;;17.07;6.97;;;9.80;99.90;;;;;;9854536;30;20540;-81
2022/10/04 01:46:24;;;;;;;17.73;6.43;;;9.80;99.90;;;;;;9860805;30;20075;-82
2022/10/04 01:51:34;;;;;;;21.73;6.70;;;9.80;99.90;;;;;;9861849;30;20032;-81
2022/10/04 01:56:43;;;;;;;28.00;7.80;;;9.80;99.90;;;;;;9845495;30;20139;-81
2022/10/04 02:01:56;;;;;;;19.20;7.37;;;9.80;99.90;;;;;;9860563;30;20048;-82
2022/10/04 02:06:59;;;;;;;21.98;7.93;;;9.80;99.90;;;;;;9861441;30;20048;-84
2022/10/04 02:12:01;;;;;;;22.17;6.53;;;9.80;99.90;;;;;;9859983;30;20051;-83
2022/10/04 02:17:09;;;;;;;16.90;7.18;;;9.80;99.90;;;;;;9867357;30;20493;-81
2022/10/04 02:22:10;;;;;;;24.13;8.13;;;9.80;99.90;;;;;;9841592;30;20490;-82
2022/10/04 02:27:11;;;;;;;22.43;7.87;;;9.90;99.90;;;;;;9866605;30;20047;-83
2022/10/04 02:37:33;;;;;;;20.73;9.07;;;9.80;99.90;;;;;;9854755;30;20051;-80
2022/10/04 02:42:59;;;;;;;17.47;6.73;;;9.70;99.90;;;;;;9867155;30;20048;-83
2022/10/04 02:48:03;;;;;;;20.65;7.82;;;9.70;99.90;;;;;;9865743;30;20040;-82
2022/10/04 02:53:21;;;;;;;20.30;7.40;;;9.70;99.90;;;;;;9865947;30;20055;-81
2022/10/04 02:58:24;;;;;;;18.10;7.25;;;9.70;99.90;;;;;;9840227;30;20033;-79
2022/10/04 03:03:37;;;;;;;22.38;7.68;;;9.60;99.90;;;;;;9864185;30;20059;-79
2022/10/04 03:08:53;;;;;;;20.23;7.83;;;9.70;99.90;;;;;;9855441;30;20059;-79
2022/10/04 03:13:57;;;;;;;24.75;7.68;;;9.60;99.90;;;;;;9860488;30;20725;-81
2022/10/04 03:18:58;;;;;;;27.17;8.77;;;9.60;99.90;;;;;;9864225;30;20497;-83
2022/10/04 03:24:00;;;;;;;24.37;9.77;;;9.60;99.90;;;;;;9863486;30;20047;-80
2022/10/04 03:29:04;;;;;;;31.30;8.27;;;9.60;99.90;;;;;;9855126;30;20044;-82
2022/10/04 03:34:05;;;;;;;20.47;7.60;;;9.60;99.90;;;;;;9848711;30;20110;-80
2022/10/04 03:39:10;;;;;;;23.10;8.00;;;9.60;99.90;;;;;;9848612;30;20061;-79
2022/10/04 03:44:15;;;;;;;16.53;7.30;;;9.70;99.90;;;;;;9837707;30;20047;-80
2022/10/04 03:49:35;;;;;;;17.13;6.85;;;9.60;99.90;;;;;;9862935;30;20684;-80
2022/10/04 03:54:36;;;;;;;16.95;7.68;;;9.50;99.90;;;;;;9854414;30;20032;-80
2022/10/04 03:59:37;;;;;;;18.52;6.65;;;9.50;99.90;;;;;;9857303;30;20040;-80
2022/10/04 04:04:53;;;;;;;18.30;6.87;;;9.40;99.90;;;;;;9858187;30;20137;-81
2022/10/04 04:10:30;;;;;;;18.17;7.50;;;9.50;99.90;;;;;;9862756;30;20035;-81
2022/10/04 04:15:33;;;;;;;21.53;7.13;;;9.40;99.90;;;;;;9749704;30;20058;-79
2022/10/04 04:20:36;;;;;;;15.27;6.10;;;9.30;99.90;;;;;;9861318;30;20032;-81
2022/10/04 04:25:40;;;;;;;21.90;7.33;;;9.20;99.90;;;;;;9856508;30;20039;-83
2022/10/04 04:30:46;;;;;;;17.63;6.47;;;9.20;99.90;;;;;;9863455;30;20040;-80
2022/10/04 04:35:47;;;;;;;23.50;7.57;;;9.20;99.90;;;;;;9854097;30;20044;-80
2022/10/04 04:40:48;;;;;;;24.20;7.30;;;9.10;99.90;;;;;;9859621;30;20028;-81
2022/10/04 04:45:50;;;;;;;17.17;8.20;;;9.10;99.90;;;;;;9857616;30;20047;-79
2022/10/04 04:50:56;;;;;;;28.77;9.13;;;9.10;99.90;;;;;;9862293;30;20045;-80
2022/10/04 04:56:00;;;;;;;17.97;6.87;;;9.10;99.90;;;;;;9862775;30;20481;-79
2022/10/04 05:01:05;;;;;;;16.60;6.27;;;9.10;99.90;;;;;;9857318;30;20048;-79
2022/10/04 05:06:24;;;;;;;19.23;6.67;;;9.20;99.90;;;;;;9862060;30;20086;-81
2022/10/04 05:11:31;;;;;;;17.03;6.47;;;9.10;99.90;;;;;;9862360;30;20028;-80
2022/10/04 05:16:47;;;;;;;20.63;7.23;;;9.10;99.90;;;;;;9861963;30;20048;-79
2022/10/04 05:21:50;;;;;;;25.17;7.50;;;9.10;99.90;;;;;;9845661;30;20083;-79
2022/10/04 05:27:03;;;;;;;17.83;7.47;;;9.10;99.90;;;;;;9862567;30;20074;-79
2022/10/04 05:32:28;;;;;;;18.33;8.30;;;9.10;99.90;;;;;;9862641;30;20040;-80
2022/10/04 05:37:42;;;;;;;25.27;7.53;;;9.10;99.90;;;;;;9846307;30;20035;-79
2022/10/04 05:42:45;;;;;;;14.33;7.23;;;9.20;99.90;;;;;;9861095;30;20553;-82
2022/10/04 05:47:49;;;;;;;22.27;8.10;;;9.20;99.90;;;;;;9862782;30;20044;-80
2022/10/04 05:52:51;;;;;;;18.27;6.93;;;9.30;99.90;;;;;;9852150;30;20036;-81
2022/10/04 05:58:26;;;;;;;19.77;7.07;;;9.40;99.90;;;;;;9868897;30;20035;-81
2022/10/04 06:03:36;;;;;;;23.00;9.13;;;9.50;99.90;;;;;;9867936;30;20056;-78
2022/10/04 06:09:26;;;;;;;17.83;7.57;;;9.50;99.90;;;;;;9851989;30;20027;-82
2022/10/04 06:14:54;;;;;;;19.88;7.03;;;9.60;99.90;;;;;;9868443;30;20510;-81
2022/10/04 06:20:33;;;;;;;20.10;6.13;;;9.70;99.90;;;;;;9867918;30;20039;-82
2022/10/04 06:26:10;;;;;;;21.77;7.33;;;9.70;99.90;;;;;;9867627;30;20035;-79
2022/10/04 06:31:43;;;;;;;17.60;7.55;;;9.80;99.90;;;;;;9864471;30;20048;-80
2022/10/04 06:36:58;;;;;;;19.05;6.10;;;9.90;99.90;;;;;;9867412;30;20044;-79
2022/10/04 06:42:05;;;;;;;11.43;4.97;;;10.00;99.90;;;;;;9867028;30;20040;-79
2022/10/04 06:47:23;;;;;;;13.40;6.50;;;10.10;99.90;;;;;;9866754;30;20050;-80
2022/10/04 06:52:47;;;;;;;18.67;6.20;;;10.20;99.90;;;;;;9867003;30;20039;-81
2022/10/04 06:57:57;;;;;;;17.23;5.93;;;10.20;99.90;;;;;;9865850;30;20520;-82
2022/10/04 07:03:47;;;;;;;19.05;5.78;;;10.30;99.90;;;;;;9866227;30;20100;-82
2022/10/04 07:08:49;;;;;;;21.95;6.25;;;10.30;99.90;;;;;;9862946;30;20126;-80
2022/10/04 07:13:50;;;;;;;13.57;5.22;;;10.30;99.90;;;;;;9865918;30;20489;-79
2022/10/04 07:18:59;;;;;;;14.82;6.72;;;10.40;99.90;;;;;;9865553;30;20024;-82
2022/10/04 07:24:02;;;;;;;19.08;6.63;;;10.40;99.90;;;;;;9865444;30;20063;-79
2022/10/04 07:29:21;;;;;;;16.17;5.97;;;10.50;99.90;;;;;;9865254;30;20020;-81
2022/10/04 07:34:25;;;;;;;21.63;7.97;;;10.60;99.90;;;;;;9865049;30;20050;-79
2022/10/04 07:39:56;;;;;;;12.05;6.07;;;10.70;99.90;;;;;;9865162;30;20040;-79
2022/10/04 07:45:15;;;;;;;24.23;7.70;;;10.80;99.90;;;;;;9864769;30;20069;-80
2022/10/04 07:50:35;;;;;;;13.38;5.00;;;10.90;99.90;;;;;;9864697;30;20032;-80
2022/10/04 07:55:59;;;;;;;17.80;6.00;;;11.00;99.90;;;;;;9864362;30;20114;-79
2022/10/04 08:01:18;;;;;;;15.15;6.22;;;11.10;99.90;;;;;;9864199;30;20035;-79
2022/10/04 08:06:35;;;;;;;19.40;7.68;;;11.20;99.90;;;;;;9863867;30;20517;-80
2022/10/04 08:11:49;;;;;;;12.45;4.03;;;11.30;99.90;;;;;;9862936;30;20043;-80
2022/10/04 08:17:04;;;;;;;12.00;4.97;;;11.50;99.90;;;;;;9863426;30;20123;-79
2022/10/04 08:22:21;;;;;;;9.37;3.83;;;11.50;99.90;;;;;;9863185;30;20768;-79
2022/10/04 08:27:22;;;;;;;18.15;8.80;;;11.70;99.90;;;;;;9862835;30;20044;-79
2022/10/04 08:32:37;;;;;;;8.77;4.50;;;11.70;99.90;;;;;;9862922;30;20036;-81
2022/10/04 08:38:00;;;;;;;15.07;5.15;;;11.40;99.90;;;;;;9862785;30;20073;-80
2022/10/04 08:43:27;;;;;;;10.95;3.75;;;11.30;99.90;;;;;;9862341;30;20405;-82
2022/10/04 08:49:09;;;;;;;11.57;4.43;;;11.40;99.90;;;;;;9862111;30;20063;-80
2022/10/04 08:54:47;;;;;;;8.63;4.15;;;11.50;99.90;;;;;;9862030;30;20051;-82
2022/10/04 09:00:15;;;;;;;8.75;4.05;;;11.60;99.90;;;;;;9862106;30;20028;-80
2022/10/04 09:05:45;;;;;;;10.90;3.83;;;12.00;99.90;;;;;;9861870;30;20404;-80
2022/10/04 09:11:10;;;;;;;12.40;4.50;;;12.00;99.90;;;;;;9861681;30;20039;-80
2022/10/04 09:16:48;;;;;;;6.72;2.35;;;11.90;99.90;;;;;;9862095;30;20043;-83
2022/10/04 09:22:11;;;;;;;6.55;2.30;;;12.20;99.90;;;;;;9861822;30;20481;-79
2022/10/04 09:27:38;;;;;;;7.88;2.72;;;12.30;99.90;;;;;;9861793;30;20044;-79
2022/10/04 09:33:06;;;;;;;20.42;10.30;;;12.60;99.90;;;;;;9862370;30;20079;-81
2022/10/04 09:38:31;;;;;;;7.68;3.00;;;12.60;99.90;;;;;;9861888;30;20046;-82
2022/10/04 09:43:32;;;;;;;9.25;3.53;;;12.20;99.90;;;;;;9861100;30;20048;-81
2022/10/04 09:49:01;;;;;;;13.60;4.75;;;11.90;99.90;;;;;;9860794;30;20560;-78
2022/10/04 09:54:24;;;;;;;13.77;4.50;;;11.90;99.90;;;;;;9860865;30;20493;-79
2022/10/04 09:59:27;;;;;;;10.00;3.30;;;12.30;99.90;;;;;;9860989;30;20100;-81
2022/10/04 10:04:47;;;;;;;7.38;3.67;;;12.80;99.90;;;;;;9861262;30;20051;-78
2022/10/04 10:15:58;;;;;;;6.65;3.58;;;13.80;99.90;;;;;;9860460;30;20035;-79
2022/10/04 10:21:25;;;;;;;6.70;2.78;;;14.40;99.90;;;;;;9860683;30;20038;-81
2022/10/04 10:27:02;;;;;;;6.57;2.17;;;14.20;99.90;;;;;;9839096;30;20079;-81
2022/10/04 10:32:33;;;;;;;8.30;3.55;;;13.70;99.90;;;;;;9843915;30;20067;-79
2022/10/04 10:37:44;;;;;;;6.10;3.03;;;13.20;99.90;;;;;;9850297;30;20094;-79
2022/10/04 10:43:00;;;;;;;7.15;2.55;;;13.00;99.90;;;;;;9866470;30;20032;-81
2022/10/04 10:48:19;;;;;;;5.78;2.85;;;13.30;99.90;;;;;;9866596;30;20072;-79
2022/10/04 10:53:53;;;;;;;7.28;2.53;;;13.90;99.90;;;;;;9865962;30;20393;-79
2022/10/04 10:59:18;;;;;;;7.72;2.47;;;14.20;99.90;;;;;;9866199;30;20035;-80
2022/10/04 11:04:34;;;;;;;16.35;7.18;;;14.20;99.90;;;;;;9865767;30;20067;-81
2022/10/04 11:09:53;;;;;;;7.03;2.80;;;14.20;99.90;;;;;;9865432;30;20733;-79
2022/10/04 11:15:05;;;;;;;7.38;2.30;;;14.20;99.90;;;;;;9865860;30;20755;-81
2022/10/04 11:20:33;;;;;;;8.18;3.08;;;14.30;99.90;;;;;;9865101;30;20607;-81
2022/10/04 11:25:56;;;;;;;8.52;3.75;;;14.80;99.90;;;;;;9865558;30;20473;-78
2022/10/04 11:31:31;;;;;;;9.68;3.75;;;15.40;99.90;;;;;;9864834;30;20038;-81
2022/10/04 11:36:40;;;;;;;6.47;2.90;;;15.60;99.90;;;;;;9864489;30;20035;-78
2022/10/04 11:42:00;;;;;;;7.60;2.60;;;15.60;99.90;;;;;;9865006;30;20067;-82
2022/10/04 11:47:21;;;;;;;9.30;3.30;;;15.10;99.90;;;;;;9863061;30;20043;-81
2022/10/04 11:52:30;;;;;;;8.93;3.22;;;14.40;99.90;;;;;;9864590;30;20035;-79
2022/10/04 11:57:52;;;;;;;6.55;2.15;;;14.40;99.90;;;;;;9863775;30;20040;-79
2022/10/04 12:03:34;;;;;;;5.05;2.50;;;14.80;99.90;;;;;;9863696;30;20064;-79
2022/10/04 12:09:03;;;;;;;5.00;2.17;;;14.80;99.90;;;;;;9863651;30;20031;-82
2022/10/04 12:14:43;;;;;;;6.80;2.28;;;14.30;99.90;;;;;;9863595;30;20053;-80
2022/10/04 12:19:53;;;;;;;6.50;2.05;;;14.30;99.90;;;;;;9863632;30;20365;-79
2022/10/04 12:25:31;;;;;;;6.25;2.45;;;14.10;99.90;;;;;;9863304;30;20047;-79
2022/10/04 12:30:50;;;;;;;2.92;2.20;;;14.40;99.90;;;;;;9863562;30;20027;-79
2022/10/04 12:36:11;;;;;;;5.05;2.55;;;14.80;99.90;;;;;;9869461;30;20165;-79
2022/10/04 12:41:22;;;;;;;5.85;1.95;;;15.00;99.90;;;;;;9870328;30;20028;-78
2022/10/04 12:46:44;;;;;;;6.32;3.00;;;14.80;99.90;;;;;;9870914;30;20470;-80
2022/10/04 12:51:50;;;;;;;11.57;5.90;;;14.50;99.90;;;;;;9870455;30;20489;-79
2022/10/04 12:57:05;;;;;;;9.27;3.85;;;14.70;99.90;;;;;;9870385;30;20051;-79
2022/10/04 13:02:28;;;;;;;20.98;9.50;;;15.20;99.90;;;;;;9869968;30;20134;-79
2022/10/04 13:07:50;;;;;;;16.30;6.57;;;15.60;99.90;;;;;;9870656;30;20473;-79
2022/10/04 13:13:16;;;;;;;9.15;3.85;;;15.90;99.90;;;;;;9869993;30;20036;-79
2022/10/04 13:18:41;;;;;;;12.00;5.95;;;16.00;99.90;;;;;;9870324;30;20032;-79
2022/10/04 13:24:13;;;;;;;8.45;3.83;;;16.10;99.90;;;;;;9870376;30;20107;-79
2022/10/04 13:29:32;;;;;;;8.15;3.20;;;16.30;99.90;;;;;;9870061;30;20453;-79
2022/10/04 13:35:20;;;;;;;5.05;1.73;;;16.30;99.90;;;;;;9848825;30;20485;-78
2022/10/04 13:40:38;;;;;;;2.55;1.38;;;16.20;99.90;;;;;;9836240;30;20113;-79
2022/10/04 13:45:57;;;;;;;3.85;1.92;;;15.90;99.90;;;;;;9854673;30;20520;-79
2022/10/04 13:51:29;;;;;;;3.67;2.40;;;15.80;99.90;;;;;;9858584;30;20059;-79
2022/10/04 13:57:04;;;;;;;4.80;2.30;;;15.90;99.90;;;;;;9853535;30;20428;-80
2022/10/04 14:02:17;;;;;;;6.32;3.20;;;16.10;99.90;;;;;;9850491;30;20086;-79
2022/10/04 14:07:36;;;;;;;7.35;2.65;;;15.90;99.90;;;;;;9857114;30;20076;-79
2022/10/04 14:12:55;;;;;;;4.80;2.67;;;15.60;99.90;;;;;;9848718;30;20500;-80
2022/10/04 14:18:12;;;;;;;9.23;3.58;;;15.60;99.90;;;;;;9858892;30;20450;-80
2022/10/04 14:23:19;;;;;;;15.98;6.35;;;15.40;99.90;;;;;;9866978;30;20051;-79
2022/10/04 14:28:40;;;;;;;7.88;3.92;;;15.40;99.90;;;;;;9855486;30;20043;-79
2022/10/04 14:34:05;;;;;;;5.20;2.17;;;15.40;99.90;;;;;;9843567;30;20047;-79
2022/10/04 14:39:27;;;;;;;4.78;2.17;;;15.30;99.90;;;;;;9850566;30;20511;-80
2022/10/04 14:44:34;;;;;;;6.03;2.92;;;15.00;99.90;;;;;;9864594;30;20058;-80
2022/10/04 14:50:01;;;;;;;6.03;1.73;;;14.90;99.90;;;;;;9854610;30;20520;-79
2022/10/04 14:55:47;;;;;;;4.95;1.73;;;14.80;99.90;;;;;;9862918;30;20035;-81
2022/10/04 15:01:18;;;;;;;5.15;2.15;;;14.30;99.90;;;;;;9853881;30;20032;-81
2022/10/04 15:06:56;;;;;;;6.00;2.25;;;13.90;99.90;;;;;;9853331;30;20382;-79
2022/10/04 15:12:25;;;;;;;6.32;2.97;;;13.80;99.90;;;;;;9807003;30;20063;-80
2022/10/04 15:17:30;;;;;;;8.82;2.58;;;13.60;99.90;;;;;;9858318;30;20115;-82
2022/10/04 15:22:43;;;;;;;5.70;3.08;;;13.30;99.90;;;;;;9860254;30;20120;-79
2022/10/04 15:27:50;;;;;;;7.43;3.10;;;13.00;99.90;;;;;;9855336;30;20040;-82
2022/10/04 15:33:13;;;;;;;10.90;4.40;;;12.80;99.90;;;;;;9856355;30;20541;-79
2022/10/04 15:38:14;;;;;;;11.57;5.10;;;12.50;99.90;;;;;;9858437;30;20120;-79
2022/10/04 15:43:44;;;;;;;14.77;6.55;;;12.30;99.90;;;;;;9860847;30;20552;-81
2022/10/04 15:49:03;;;;;;;16.10;7.30;;;12.20;99.90;;;;;;9850923;30;20473;-82
2022/10/04 15:54:13;;;;;;;15.73;6.80;;;12.00;99.90;;;;;;9867644;30;20404;-81
2022/10/04 15:59:40;;;;;;;14.38;7.35;;;11.80;99.90;;;;;;9863463;30;20048;-79
2022/10/04 16:05:13;;;;;;;14.65;7.88;;;11.60;99.90;;;;;;9855848;30;20063;-80
2022/10/04 16:10:26;;;;;;;17.33;7.55;;;11.30;99.90;;;;;;9860905;30;20067;-81
2022/10/04 16:15:38;;;;;;;13.90;6.70;;;11.00;99.90;;;;;;9861957;30;20463;-80
2022/10/04 16:20:39;;;;;;;11.25;6.28;;;10.80;99.90;;;;;;9851315;30;20043;-81
2022/10/04 16:25:41;;;;;;;11.05;6.10;;;10.70;99.90;;;;;;9860868;30;20750;-81
2022/10/04 16:31:16;;;;;;;17.00;8.45;;;10.50;99.90;;;;;;9857484;30;20035;-78
2022/10/04 16:36:42;;;;;;;19.87;9.17;;;10.30;99.90;;;;;;9848832;30;20040;-79
2022/10/04 16:41:53;;;;;;;41.10;17.17;;;10.10;99.90;;;;;;9860664;30;20044;-78
2022/10/04 16:46:58;;;;;;;44.47;19.80;;;9.80;99.90;;;;;;9857285;30;20039;-80
2022/10/04 16:52:22;;;;;;;40.73;19.90;;;9.70;99.90;;;;;;9852312;30;20504;-78
2022/10/04 16:57:26;;;;;;;43.30;19.57;;;9.60;99.90;;;;;;9858817;30;20727;-82
2022/10/04 17:02:52;;;;;;;44.27;20.87;;;9.40;99.90;;;;;;9856281;30;20055;-81
2022/10/04 17:08:15;;;;;;;44.95;24.02;;;9.30;99.90;;;;;;9849060;30;20377;-79
2022/10/04 17:13:32;;;;;;;47.93;24.10;;;9.20;99.90;;;;;;9844751;30;20074;-79
2022/10/04 17:19:13;;;;;;;54.87;31.63;;;9.10;99.90;;;;;;9851553;30;20074;-79
2022/10/04 17:24:21;;;;;;;66.57;36.90;;;9.00;99.90;;;;;;9855637;30;20043;-79
2022/10/04 17:29:48;;;;;;;67.73;34.83;;;8.90;99.90;;;;;;9859116;30;20051;-81
2022/10/04 17:35:05;;;;;;;51.00;28.90;;;8.90;99.90;;;;;;9839419;30;20056;-82
2022/10/04 17:40:12;;;;;;;46.43;24.87;;;8.90;99.90;;;;;;9860747;30;20019;-80
2022/10/04 17:45:42;;;;;;;44.77;21.73;;;8.90;99.90;;;;;;9861348;30;20074;-79
2022/10/04 17:56:37;;;;;;;57.80;30.67;;;8.80;99.90;;;;;;9850220;30;20123;-78
2022/10/04 18:01:44;;;;;;;64.07;33.03;;;8.60;99.90;;;;;;9866814;30;20498;-80
2022/10/04 18:07:03;;;;;;;55.13;29.17;;;8.60;99.90;;;;;;9864141;30;20571;-79
2022/10/04 18:12:22;;;;;;;59.27;27.73;;;8.60;99.90;;;;;;9865616;30;20045;-79
2022/10/04 18:17:25;;;;;;;51.67;28.03;;;8.60;99.90;;;;;;9864820;30;20044;-80
2022/10/04 18:22:27;;;;;;;50.40;25.47;;;8.50;99.90;;;;;;9865563;30;20154;-79
2022/10/04 18:27:28;;;;;;;40.87;22.23;;;8.50;99.90;;;;;;9847377;30;20039;-79
2022/10/04 18:32:30;;;;;;;43.37;22.30;;;8.50;99.90;;;;;;9866172;30;20316;-79
2022/10/04 18:37:38;;;;;;;56.27;27.00;;;8.50;99.90;;;;;;9864623;30;20161;-79
2022/10/04 18:42:40;;;;;;;61.13;29.67;;;8.50;99.90;;;;;;9858361;30;20055;-80
2022/10/04 18:47:41;;;;;;;65.57;32.77;;;8.50;99.90;;;;;;9865042;30;20509;-78
2022/10/04 18:53:12;;;;;;;72.07;38.80;;;8.40;99.90;;;;;;9856832;30;20160;-78
2022/10/04 19:04:03;;;;;;;70.30;34.67;;;8.30;99.90;;;;;;9860780;30;20060;-81
2022/10/04 19:09:15;;;;;;;60.43;32.50;;;8.20;99.90;;;;;;9864959;30;20026;-81
2022/10/04 19:14:31;;;;;;;67.03;36.07;;;8.10;99.90;;;;;;9865329;30;20127;-80
2022/10/04 19:20:04;;;;;;;56.20;27.40;;;8.10;99.90;;;;;;9855586;30;20046;-81
2022/10/04 19:25:15;;;;;;;70.10;34.83;;;8.10;99.90;;;;;;9844882;30;20080;-79
2022/10/04 19:30:21;;;;;;;67.00;34.33;;;8.10;99.90;;;;;;9864611;30;20032;-80
2022/10/04 19:35:52;;;;;;;63.35;34.90;;;8.10;99.90;;;;;;9853915;30;20071;-79
2022/10/04 19:41:08;;;;;;;114.80;60.83;;;8.10;99.90;;;;;;9859000;30;20034;-81
2022/10/04 19:46:30;;;;;;;88.03;47.92;;;7.90;99.90;;;;;;9863374;30;20545;-83
2022/10/04 19:51:45;;;;;;;81.33;43.97;;;7.80;99.90;;;;;;9863025;30;20028;-81
2022/10/04 19:56:48;;;;;;;84.87;45.97;;;7.80;99.90;;;;;;9863205;30;20038;-78
2022/10/04 20:01:51;;;;;;;91.20;50.83;;;7.80;99.90;;;;;;9863498;30;20089;-79
2022/10/04 20:06:58;;;;;;;92.77;52.23;;;7.80;99.90;;;;;;9845415;30;20063;-78
2022/10/04 20:11:59;;;;;;;101.73;55.33;;;7.80;99.90;;;;;;9863246;30;20042;-78
2022/10/04 20:17:01;;;;;;;122.87;72.80;;;7.90;99.90;;;;;;9862966;30;20433;-78
2022/10/04 20:22:11;;;;;;;125.07;75.33;;;8.00;99.90;;;;;;9861881;30;20044;-82
2022/10/04 20:27:23;;;;;;;112.57;68.57;;;8.00;99.90;;;;;;9862990;30;20059;-78
2022/10/04 20:32:35;;;;;;;99.03;58.07;;;8.10;99.90;;;;;;10448047;28;20407;-78
2022/10/04 20:37:59;;;;;;;102.87;58.23;;;8.10;99.90;;;;;;10440190;28;20060;-78
2022/10/04 20:43:15;;;;;;;92.87;52.97;;;8.00;99.90;;;;;;10439223;28;20439;-80
2022/10/04 20:48:24;;;;;;;89.50;50.47;;;8.00;99.90;;;;;;10439126;28;20045;-82
2022/10/04 20:53:30;;;;;;;86.13;46.53;;;7.90;99.90;;;;;;10439218;28;20045;-80
2022/10/04 20:58:34;;;;;;;84.93;44.37;;;7.90;99.90;;;;;;10440091;28;20021;-78
2022/10/04 21:03:35;;;;;;;73.57;41.17;;;7.90;99.90;;;;;;10418015;28;20086;-80
2022/10/04 21:08:36;;;;;;;72.47;38.93;;;7.90;99.90;;;;;;10438355;28;20385;-76
2022/10/04 21:13:40;;;;;;;84.70;46.20;;;7.80;99.90;;;;;;10426977;28;20025;-78
2022/10/04 21:18:41;;;;;;;97.50;53.53;;;7.70;99.90;;;;;;10428737;28;20060;-78
2022/10/04 21:23:41;;;;;;;97.70;52.70;;;7.70;99.90;;;;;;10438078;28;20101;-78
2022/10/04 21:28:42;;;;;;;84.90;47.50;;;7.70;99.90;;;;;;10437671;28;20734;-78
2022/10/04 21:33:43;;;;;;;86.33;47.73;;;7.70;99.90;;;;;;10425520;28;20029;-78
2022/10/04 21:38:43;;;;;;;85.50;47.30;;;7.70;99.90;;;;;;10437236;28;20086;-81
2022/10/04 21:43:44;;;;;;;74.27;42.13;;;7.70;99.90;;;;;;10399946;28;20436;-78
2022/10/04 21:48:44;;;;;;;74.17;42.60;;;7.70;99.90;;;;;;10399040;28;20461;-78
2022/10/04 21:53:45;;;;;;;76.47;40.67;;;7.60;99.90;;;;;;10409072;28;20042;-78
2022/10/04 21:58:45;;;;;;;82.53;44.20;;;7.50;99.90;;;;;;10402187;28;20033;-78
2022/10/04 22:03:46;;;;;;;81.63;43.07;;;7.50;99.90;;;;;;10408311;28;20519;-78
2022/10/04 22:08:46;;;;;;;86.97;45.97;;;7.40;99.90;;;;;;10406807;28;20037;-81
2022/10/04 22:13:47;;;;;;;69.57;38.93;;;7.40;99.90;;;;;;10397504;28;20038;-78
2022/10/04 22:18:48;;;;;;;79.83;40.93;;;7.40;99.90;;;;;;10405865;28;20029;-78
2022/10/04 22:23:48;;;;;;;83.77;45.53;;;7.30;99.90;;;;;;10400924;28;20037;-78
2022/10/04 22:28:52;;;;;;;90.03;49.77;;;7.10;99.90;;;;;;10394763;28;20057;-80
2022/10/04 22:33:53;;;;;;;88.83;49.50;;;7.00;99.90;;;;;;10381977;28;20385;-78
2022/10/04 22:38:59;;;;;;;97.27;51.80;;;7.00;99.90;;;;;;10394849;28;20009;-78
2022/10/04 22:44:16;;;;;;;94.22;50.78;;;6.90;99.90;;;;;;10400914;28;20041;-78
2022/10/04 22:49:23;;;;;;;102.40;55.03;;;6.80;99.90;;;;;;10400304;28;20100;-78
2022/10/04 22:54:27;;;;;;;97.00;51.60;;;6.70;99.90;;;;;;10407344;28;20111;-78
2022/10/04 22:59:54;;;;;;;110.33;59.40;;;6.70;99.90;;;;;;10406070;28;20375;-80
2022/10/04 23:04:57;;;;;;;87.93;49.70;;;6.70;99.90;;;;;;10404910;28;20087;-78
2022/10/04 23:09:57;;;;;;;120.53;59.07;;;6.70;99.90;;;;;;10406686;28;20029;-79
2022/10/04 23:14:58;;;;;;;125.23;59.53;;;6.60;99.90;;;;;;10406822;28;20034;-80
2022/10/04 23:20:07;;;;;;;115.80;56.03;;;6.60;99.90;;;;;;10405322;28;20032;-79
2022/10/04 23:25:19;;;;;;;107.47;50.03;;;6.60;99.90;;;;;;10394580;28;20045;-78
2022/10/04 23:30:21;;;;;;;108.73;47.93;;;6.60;99.90;;;;;;10403761;28;20077;-78
2022/10/04 23:35:24;;;;;;;87.77;43.23;;;6.70;99.90;;;;;;10394520;28;20428;-77
2022/10/04 23:40:25;;;;;;;93.40;41.10;;;6.70;99.90;;;;;;10402949;28;20587;-78
2022/10/04 23:45:25;;;;;;;69.60;36.20;;;6.70;99.90;;;;;;10404885;28;20033;-78
2022/10/04 23:50:29;;;;;;;70.73;35.20;;;6.70;99.90;;;;;;10403003;28;20528;-78
2022/10/04 23:55:37;;;;;;;65.40;34.40;;;6.70;99.90;;;;;;10401019;28;20087;-78
